Ride Results

Bendemeer (02-05-2010)
Ride distance: 80.0 km

Outcomes - Bendemeer (02-05-2010)
Division No. of Entries Retired / DNE Completed Withdrawn Ineligible V/O Percentage Completed
HW 17 - 15 1 - 1 88.24%
MW 26 - 24 - - 2 92.31%
LW 15 - 13 1 - 1 86.67%
JN 3 - 2 1 - - 66.67%
Totals 61 - 54 3 - 4 88.52%
Results - Bendemeer (02-05-2010)
No. Rider Horse Place Time Leg Speeds Total
Km/Hr
H/R bpm
Heavyweight
10 Gary Pevy Conderosa Zoltan 1 (BC) 5:18:00 17.6, 13.1 15.09 42, 46, 50 (Avg:48)
27 Peter Cooper McDonald Park Focus 2 5:45:00 15.5, 12.5 13.91 38, 51, 55 (Avg:53)
53 Dallas Blakely Rachem Mustava Heart 3 6:02:00 16.7, 10.9 13.26 31, 44, 49 (Avg:46)
52 Frank Flissinger Ranjen Krystal Cascade 4 6:02:30 14.9, 11.8 13.24 36, 41, 42 (Avg:41)
45 Peter Bonham Box Hill Rain Lover 5 6:09:00 15.3, 11.2 13.01 32, 42, 53 (Avg:47)
38 Phil Coleman Alnotarj Statistic 6 6:29:00 13.8, 11.1 12.34 36, 0, 52 (Avg:26)
36 Allan Caslick A'Landell Lieutenant 7 6:50:00 12.0, 11.3 11.71 44, 41, 40 (Avg:40)
43 Stuart Hitchcock Ralvon Courier 8 7:18:00 15.8, 8.3 10.96 36, 50, 59 (Avg:54)
17 Warren Trevor Towarri Blaze 9 7:25:00 12.2, 9.6 10.79 34, 46, 52 (Avg:49)
59 Neil Clarkson Espirit Sherwood 10 7:26:00 12.9, 9.1 10.76 32, 41, 48 (Avg:44)
24 Roy Barsby Dumaresque Lincoln 11 7:45:00 12.1, 8.9 10.32 35, 51, 52 (Avg:51)
57 Marylou Locke Ally 12 7:58:00 11.7, 8.7 10.04 39, 39, 48 (Avg:43)
49 Melanie Askew Box Hill Elnino 13 8:16:00 11.5, 8.3 9.68 30, 40, 44 (Avg:42)
50 Damien Bonham Box Hill Bullzeye 13 8:16:00 11.3, 8.4 9.68 29, 41, 45 (Avg:43)
48 Wendy Bushell Arabesque Arabella 15 8:29:00 11.4, 8.0 9.43 32, 42, 49 (Avg:45)
32 Haydn Fisher Kadimah Park Ra'am Withdrawn P/R 0:00:00 - - 40
29 Jennifer Hargraves Kaaren Azire Celebrity Metabolics P/R 0:00:00 - - -
Middleweight
9 Debbie Pevy Dasstroyer 1 4:48:00 18.6, 15.0 16.67 42, 43, 48 (Avg:45)
34 Nicole Urquhart Manana Gaylord 1 4:48:00 18.6, 15.0 16.67 38, 44, 56 (Avg:50)
41 Margaret Boland A'Landell Karlinta 3 (BC) 4:50:00 17.3, 15.7 16.55 36, 46, 50 (Avg:48)
33 Raymond Griffiths Ginger Megs 3 4:50:00 17.3, 15.7 16.55 38, 44, 53 (Avg:48)
14 Renee Kirk Tranquility Tango 5 5:13:00 15.4, 15.1 15.34 36, 40, 41 (Avg:40)
13 Jason Kirk Castlebar Coyote 5 5:13:00 15.4, 15.1 15.34 38, 40, 46 (Avg:43)
25 Neroli Mitchell- Cooper A'Landell Corvet 7 5:45:00 15.5, 12.5 13.91 36, 39, 44 (Avg:41)
46 Christie Chapman Box Hill Ralph 8 6:09:00 15.0, 11.4 13.01 32, 44, 42 (Avg:43)
2 Tami Parnell Churinga Desire 9 6:10:00 15.3, 11.2 12.97 34, 41, 48 (Avg:44)
6 Ruth Van der Wegen A'Landell Kahal 9 6:10:00 15.3, 11.2 12.97 34, 43, 46 (Avg:44)
26 Tracey Morley Summit Park Alborak 11 6:26:00 13.1, 11.8 12.44 34, 40, 46 (Avg:43)
18 Naomi Hooper Bendy Bay 12 6:26:30 13.4, 11.5 12.42 41, 43, 48 (Avg:45)
31 Gail Fisher Arasarta Narhalinian 13 6:34:00 13.2, 11.2 12.18 38, 42, 44 (Avg:43)
35 Tracy Haack D-Lua Park Moniette 14 6:50:00 12.0, 11.3 11.71 40, 39, 55 (Avg:47)
3 Peter Kelly Ramalea Laila 15 6:59:00 12.9, 10.3 11.46 37, 42, 48 (Avg:45)
11 Graham Stockdale Noble Navaar Blakes Crystal Icon 15 6:59:00 12.3, 10.7 11.46 28, 37, 48 (Avg:42)
15 Sheree Gray Happy Joseph 17 7:19:00 12.9, 9.4 10.93 38, 46, 56 (Avg:51)
12 Sally Griffin Kurrajong Koran 18 7:38:00 11.7, 9.4 10.48 37, 42, 52 (Avg:47)
21 Victoria Bonham Bridle Track Bogart 19 7:44:00 11.5, 9.3 10.34 45, 47, 51 (Avg:49)
22 Chris Noonan Dumaresq Jackson 19 7:44:00 11.5, 9.3 10.34 38, 40, 46 (Avg:43)
44 Kylee Heslop Box Hill Elmo 21 7:53:00 11.3, 9.1 10.15 30, 39, 49 (Avg:44)
56 Bob Locke Nyora Legacy 22 7:58:00 11.7, 8.7 10.04 32, 36, 39 (Avg:37)
47 Patricia Waddell Box Hill Diva 23 8:16:00 11.5, 8.3 9.68 32, 42, 43 (Avg:42)
28 Sonya Ruprecht Alhambra Etienne 24 8:29:00 10.3, 8.6 9.43 39, 48, 54 (Avg:51)
8 Garry Bennett Karabil Yaningi Heart Rate L2 0:00:00 16.5, 12.9 - 29, 46, 68 (Avg:57)
16 Ron Males Saharri Park Shahsaar Heart Rate L2 0:00:00 13.1, 10.2 - 32, 42, 70 (Avg:56)
Lightweight
30 Carol Layton Omani Mr Sqiggle 1 (BC) 4:50:00 17.3, 15.7 16.55 36, 40, 43 (Avg:41)
39 Abby McMurrich Tannamara Reimahni 2 5:12:00 17.5, 13.7 15.38 40, 44, 46 (Avg:45)
60 Gloria Mills Glendos Sabodie 2 5:12:00 16.5, 14.3 15.38 38, 38, 43 (Avg:40)
4 Anne Hills Kerewong Shelfyre 4 5:17:00 18.1, 12.9 15.14 34, 42, 47 (Avg:44)
51 Pip Lillyman Splendacrest Dryad 5 6:02:00 16.7, 10.9 13.26 38, 48, 54 (Avg:51)
42 Janine Warner Webbs Creek Rising Fast 6 6:08:00 13.3, 12.7 13.04 38, 43, 56 (Avg:49)
1 Kim Hagon Diamond R Boston 7 6:22:00 14.6, 11.0 12.57 36, 46, 53 (Avg:49)
37 Ros Ryan Rainbows Reach Scout 8 6:29:00 13.8, 11.1 12.34 30, 34, 42 (Avg:38)
7 Melanie Anderson Ausden Kon Tiki 9 6:32:00 13.1, 11.4 12.24 39, 52, 60 (Avg:56)
61 Kate Pilley Binks 10 6:34:00 13.2, 11.2 12.18 29, 38, 52 (Avg:45)
23 Deanna Trevena Warr of the Roses 11 6:49:00 12.1, 11.3 11.74 34, 32, 44 (Avg:38)
54 Sue Todd Shalacey Bear 12 6:50:00 12.0, 11.3 11.71 38, 40, 46 (Avg:43)
40 Julie Brooks Harmere Lahsa 13 7:38:00 12.4, 9.0 10.48 39, 45, 60 (Avg:52)
55 Emma Fletcher Diamond R Oscar Lame L2 0:00:00 15.3, 9.3 - 28, 40, 45 (Avg:42)
5 Linda Logan Follydown Topaz Withdrawn L1 0:00:00 - - 38, 43 (Avg:43)
Junior
20 Zac Hooper Topline Sophine 1 (BC) 6:26:30 13.4, 11.5 12.42 33, 38, 43 (Avg:40)
58 Sarah Stuart Abrock Lucinda 2 7:38:00 10.3, 10.6 10.48 40, 41, 55 (Avg:48)
19 Trinity Hooper Roxborough Pegasus Withdrawn L1 0:00:00 - - 38, 40 (Avg:40)